Grenola, KS (67346)

8:10 PM CDT on October 25, 2014 (GMT -0500)
Atlanta Weather | Change Station
CLOSE
Current Station
Personal Weather Station
Location: Atlanta, KS
Elevation: 1447 ft
Nearby Weather Stations

Elev 1447 ft 37.43 °N, 96.76 °W | Updated 14 minutes ago

Clear
Clear
69.4 °F
Feels Like 69.4 °F
N
1.7
Wind Variable Wind from SSE

Today
High -- | Low -- °F
--% Chance of Precip.
Yesterday
High -- | Low -- °F
Precip. -- in
7:43 AM 6:35 PM
Waxing Crescent, 5% visible
Pressure 29.97 in
Visibility 10.0 miles
Clouds Clear
Dew Point 60 °F
Humidity 73%
Rainfall 0.00 in
Snow Depth Not available.
UV 0 out of 12
Pollen 3.30 out of 12
Air Quality Not available.
Flu Activity Not available.
METAR KWLD 260054Z AUTO 14005KT 10SM CLR 24/17 A2999 RMK AO2 SLP148 T02390167

More Conditions Fewer Conditions

Pressure 29.97 in
Visibility 10.0 miles
Clouds Clear
Dew Point 60 °F
Humidity 73%
Rainfall 0.00 in
Snow Depth Not available.
UV 0 out of 12
Pollen 3.30 out of 12
Air Quality Not available.
Flu Activity Not available.
METAR KWLD 260054Z AUTO 14005KT 10SM CLR 24/17 A2999 RMK AO2 SLP148 T02390167

More Conditions Fewer Conditions

10-Day Weather Forecast

Almanac

Astronomy

Oct. 25, 2014 Rise Set
Actual Time 7:43 AM CDT 6:35 PM CDT
Civil Twilight 7:16 AM CDT 7:02 PM CDT
Nautical Twilight 6:46 AM CDT 7:32 PM CDT
Astronomical Twilight 6:15 AM CDT 8:03 PM CDT
Moon 9:21 AM CDT (10/25) 8:01 PM CDT (10/25)
Length of Visible Light 11h 45m
Length of Day
10h 52m
Tomorrow will be 2m 11s shorter.
Waxing Crescent, 5% of the Moon is Illuminated
Today
Waxing Crescent
Oct 30
First Quarter
Nov 6
Full
Nov 14
Last Quarter
Nov 22
New

Today's Extremes

State Highs State Lows

Community

WunderPhotos

Upload Photos

1,765,058 photos uploaded!

Nearby

Snow Depth

Station Depth Elevation
No new snow has been reported.

Earthquake Activity

City Distance Mag. Time & Date
Jones, Oklahoma 129 miles 3.0 12:10 PM CDT
2014-10-25
Langston, Oklahoma 112 miles 3.0 7:36 AM CDT
2014-10-25
Pawnee, Oklahoma 75 miles 2.6 7:24 PM CDT
2014-10-24
Medford, Oklahoma 86 miles 2.6 12:44 PM CDT
2014-10-24
Minimum magnitude displayed is 2.5.

Coastal Water Temperatures

Place Temperature
No Stations Reporting

Nearby Weather Stations